createdAt,value
2023-06-18T00:00:14.457Z,53.89
2023-06-18T00:02:42.319Z,53.59
2023-06-18T00:05:09.785Z,54.27
2023-06-18T00:07:37.178Z,55.65
2023-06-18T00:10:05.614Z,54.76
2023-06-18T00:12:33.010Z,53.19
2023-06-18T00:15:00.547Z,54.54
2023-06-18T00:17:28.225Z,53.42
2023-06-18T00:19:55.618Z,55.21
2023-06-18T00:22:24.236Z,55.43
2023-06-18T00:24:51.901Z,54.80
2023-06-18T00:27:21.220Z,55.21
2023-06-18T00:29:48.618Z,54.95
2023-06-18T00:32:16.346Z,55.00
2023-06-18T00:34:43.780Z,55.27
2023-06-18T00:37:12.085Z,55.91
2023-06-18T00:39:39.872Z,56.06
2023-06-18T00:42:08.800Z,58.53
2023-06-18T00:44:41.105Z,57.27
2023-06-18T00:47:12.912Z,56.08
2023-06-18T00:49:43.715Z,56.02
2023-06-18T00:52:13.666Z,56.32
2023-06-18T00:54:41.994Z,55.98
2023-06-18T00:57:09.677Z,56.43
2023-06-18T00:59:38.598Z,56.93
2023-06-18T01:02:06.419Z,56.08
2023-06-18T01:04:34.256Z,56.02
2023-06-18T01:07:03.859Z,54.83
2023-06-18T01:09:31.798Z,54.61
2023-06-18T01:12:01.489Z,54.57
2023-06-18T01:14:29.806Z,55.93
2023-06-18T01:16:58.927Z,54.76
2023-06-18T01:19:47.528Z,56.97
2023-06-18T01:22:27.605Z,55.32
2023-06-18T01:25:03.328Z,55.71
2023-06-18T01:27:34.978Z,56.40
2023-06-18T01:30:02.679Z,56.75
2023-06-18T01:32:30.727Z,57.72
2023-06-18T01:34:58.504Z,57.53
2023-06-18T01:37:49.597Z,58.34
2023-06-18T01:40:26.387Z,58.16
2023-06-18T01:42:57.011Z,59.77
2023-06-18T01:45:30.211Z,58.16
2023-06-18T01:48:00.370Z,58.69
2023-06-18T01:50:28.075Z,59.46
2023-06-18T01:52:55.724Z,58.81
2023-06-18T01:55:23.180Z,58.82
2023-06-18T01:57:51.010Z,59.56
2023-06-18T02:00:19.602Z,58.99
2023-06-18T02:02:48.155Z,59.90
2023-06-18T02:05:15.628Z,59.04
2023-06-18T02:07:43.057Z,59.18
2023-06-18T02:10:11.186Z,59.91
2023-06-18T02:12:38.541Z,59.33
2023-06-18T02:15:08.915Z,58.35
2023-06-18T02:17:36.636Z,57.84
2023-06-18T02:20:04.873Z,59.06
2023-06-18T02:22:32.637Z,59.32
2023-06-18T02:25:00.032Z,59.58
2023-06-18T02:27:27.713Z,59.85
2023-06-18T02:29:55.084Z,58.58
2023-06-18T02:32:22.510Z,59.11
2023-06-18T02:34:50.190Z,59.29
2023-06-18T02:37:17.708Z,58.92
2023-06-18T02:39:45.067Z,58.11
2023-06-18T02:42:13.114Z,58.49
2023-06-18T02:44:43.664Z,59.42
2023-06-18T02:47:11.153Z,58.87
2023-06-18T02:49:38.801Z,60.83
2023-06-18T02:52:07.600Z,60.21
2023-06-18T02:54:35.074Z,61.41
2023-06-18T02:57:02.814Z,63.11
2023-06-18T02:59:30.323Z,60.70
2023-06-18T03:01:57.941Z,61.49
2023-06-18T03:04:25.694Z,60.65
2023-06-18T03:06:54.699Z,60.31
2023-06-18T03:09:22.109Z,59.63
2023-06-18T03:11:50.425Z,60.52
2023-06-18T03:14:18.139Z,60.39
2023-06-18T03:16:46.113Z,60.55
2023-06-18T03:19:13.865Z,62.94
2023-06-18T03:21:41.882Z,60.33
2023-06-18T03:24:09.615Z,59.85
2023-06-18T03:26:37.331Z,61.01
2023-06-18T03:29:04.892Z,59.48
2023-06-18T03:31:33.711Z,60.33
2023-06-18T03:34:02.610Z,58.85
2023-06-18T03:36:30.596Z,59.71
2023-06-18T03:38:58.052Z,58.69
2023-06-18T03:41:26.830Z,58.85
2023-06-18T03:43:54.256Z,60.55
2023-06-18T03:46:21.927Z,59.50
2023-06-18T03:48:50.438Z,57.89
2023-06-18T03:51:18.030Z,57.39
2023-06-18T03:53:46.062Z,57.45
2023-06-18T03:56:13.971Z,56.47
2023-06-18T03:58:41.592Z,56.72
2023-06-18T04:01:09.550Z,57.06
2023-06-18T04:03:40.850Z,56.16
2023-06-18T04:06:08.324Z,56.91
2023-06-18T04:08:35.889Z,55.68
2023-06-18T04:11:03.661Z,56.67
2023-06-18T04:13:31.792Z,55.69
2023-06-18T04:15:59.991Z,55.85
2023-06-18T04:18:27.819Z,55.34
2023-06-18T04:20:55.265Z,55.66
2023-06-18T04:23:22.949Z,55.07
2023-06-18T04:25:50.618Z,55.58
2023-06-18T04:28:18.382Z,54.58
2023-06-18T04:30:45.790Z,55.57
2023-06-18T04:33:13.643Z,53.40
2023-06-18T04:35:42.495Z,50.07
2023-06-18T04:38:12.147Z,48.00
2023-06-18T04:40:40.212Z,45.72
2023-06-18T04:43:07.608Z,44.20
2023-06-18T04:45:35.261Z,43.25
2023-06-18T04:48:04.199Z,40.88
2023-06-18T04:50:33.173Z,41.71
2023-06-18T04:53:01.122Z,40.19
2023-06-18T04:55:29.483Z,39.30
2023-06-18T04:57:57.237Z,37.37
2023-06-18T05:00:24.881Z,35.92
2023-06-18T05:02:52.925Z,35.66
2023-06-18T05:05:20.452Z,33.64
2023-06-18T05:07:48.151Z,33.10
2023-06-18T05:10:15.908Z,34.16
2023-06-18T05:12:43.370Z,33.20
2023-06-18T05:15:10.832Z,31.71
2023-06-18T05:17:38.749Z,32.82
2023-06-18T05:20:07.672Z,32.03
2023-06-18T05:22:35.280Z,30.82
2023-06-18T05:25:05.281Z,31.16
2023-06-18T05:27:33.638Z,31.21
2023-06-18T05:30:01.332Z,30.31
2023-06-18T05:32:30.340Z,33.44
2023-06-18T05:34:58.292Z,31.66
2023-06-18T05:37:25.868Z,30.90
2023-06-18T05:39:53.551Z,30.41
2023-06-18T05:42:22.008Z,29.15
2023-06-18T05:44:49.476Z,29.09
2023-06-18T05:47:17.259Z,27.65
2023-06-18T05:49:44.986Z,29.50
2023-06-18T05:52:12.422Z,29.57
2023-06-18T05:54:40.785Z,29.79
2023-06-18T05:57:08.157Z,29.97
2023-06-18T05:59:35.644Z,29.90
2023-06-18T06:02:06.318Z,29.09
2023-06-18T06:04:34.048Z,28.00
2023-06-18T06:07:01.423Z,28.15
2023-06-18T06:09:28.879Z,28.97
2023-06-18T06:11:57.031Z,27.72
2023-06-18T06:14:24.584Z,27.83
2023-06-18T06:16:58.416Z,27.84
2023-06-18T06:19:26.689Z,26.68
2023-06-18T06:21:54.147Z,28.10
2023-06-18T06:24:22.600Z,26.32
2023-06-18T06:26:50.281Z,25.64
2023-06-18T06:29:18.247Z,24.96
2023-06-18T06:31:45.884Z,23.56
2023-06-18T06:34:13.750Z,23.39
2023-06-18T06:36:41.788Z,25.37
2023-06-18T06:39:10.052Z,24.55
2023-06-18T06:41:37.710Z,24.36
2023-06-18T06:44:05.390Z,23.70
2023-06-18T06:46:33.834Z,23.81
2023-06-18T06:49:08.202Z,22.52
2023-06-18T06:51:36.551Z,22.39
2023-06-18T06:54:05.715Z,21.95
2023-06-18T06:56:33.298Z,21.48
2023-06-18T06:59:00.962Z,20.94
2023-06-18T07:01:28.716Z,20.44
2023-06-18T07:03:56.227Z,21.56
2023-06-18T07:06:23.613Z,21.27
2023-06-18T07:08:51.908Z,20.68
2023-06-18T07:11:19.294Z,19.96
2023-06-18T07:13:46.822Z,21.01
2023-06-18T07:16:14.498Z,20.37
2023-06-18T07:18:41.900Z,20.37
2023-06-18T07:21:09.303Z,19.70
2023-06-18T07:23:37.125Z,19.18
2023-06-18T07:26:04.663Z,19.56
2023-06-18T07:28:32.062Z,19.64
2023-06-18T07:30:59.746Z,19.68
2023-06-18T07:33:27.134Z,20.43
2023-06-18T07:35:54.562Z,21.69
2023-06-18T07:38:23.557Z,19.66
2023-06-18T07:40:51.421Z,20.20
2023-06-18T07:43:18.770Z,20.79
2023-06-18T07:45:46.407Z,18.45
2023-06-18T07:48:13.786Z,17.99
2023-06-18T07:50:41.496Z,18.38
2023-06-18T07:53:09.124Z,18.71
2023-06-18T07:55:36.533Z,18.55
2023-06-18T07:58:03.953Z,19.00
2023-06-18T08:00:31.658Z,21.52
2023-06-18T08:02:59.356Z,21.13
2023-06-18T08:05:26.848Z,18.54
2023-06-18T08:07:54.242Z,18.75
2023-06-18T08:10:22.091Z,18.80
2023-06-18T08:12:49.657Z,19.78
2023-06-18T08:15:17.165Z,17.93
2023-06-18T08:17:44.838Z,18.27
2023-06-18T08:20:12.561Z,18.83
2023-06-18T08:22:39.985Z,19.09
2023-06-18T08:25:07.995Z,19.91
2023-06-18T08:27:35.799Z,18.92
2023-06-18T08:30:06.916Z,20.90
2023-06-18T08:32:34.608Z,19.09
2023-06-18T08:35:02.406Z,19.30
2023-06-18T08:37:31.194Z,18.98
2023-06-18T08:39:58.841Z,19.35
2023-06-18T08:42:26.213Z,17.88
2023-06-18T08:44:54.579Z,19.05
2023-06-18T08:47:22.771Z,17.95
2023-06-18T08:49:51.109Z,16.96
2023-06-18T08:52:19.622Z,17.17
2023-06-18T08:54:49.107Z,17.51
2023-06-18T08:57:46.589Z,17.78
2023-06-18T09:00:14.404Z,17.50
2023-06-18T09:02:42.342Z,17.95
2023-06-18T09:05:11.779Z,17.13
2023-06-18T09:07:39.831Z,17.02
2023-06-18T09:10:07.439Z,16.46
2023-06-18T09:12:34.843Z,17.02
2023-06-18T09:15:03.280Z,16.56
2023-06-18T09:17:31.022Z,17.62
2023-06-18T09:19:58.457Z,18.55
2023-06-18T09:22:26.469Z,16.26
2023-06-18T09:24:58.924Z,16.87
2023-06-18T09:27:33.548Z,17.25
2023-06-18T09:30:01.040Z,15.16
2023-06-18T09:32:29.068Z,14.46
2023-06-18T09:34:56.536Z,13.99
2023-06-18T09:37:24.068Z,13.49
2023-06-18T09:39:54.713Z,15.07
2023-06-18T09:42:29.052Z,15.85
2023-06-18T09:44:56.788Z,15.33
2023-06-18T09:47:24.386Z,15.15
2023-06-18T09:49:52.296Z,15.36
2023-06-18T09:52:20.417Z,16.02
2023-06-18T09:54:48.452Z,15.57
2023-06-18T09:57:17.485Z,15.27
2023-06-18T09:59:45.209Z,13.93
2023-06-18T10:02:15.825Z,14.55
2023-06-18T10:04:43.531Z,14.33
2023-06-18T10:07:17.056Z,14.91
2023-06-18T10:09:47.058Z,14.11
2023-06-18T10:12:16.364Z,15.21
2023-06-18T10:14:43.770Z,15.57
2023-06-18T10:17:25.110Z,15.04
2023-06-18T10:20:02.189Z,15.14
2023-06-18T10:22:30.458Z,15.69
2023-06-18T10:25:03.613Z,15.08
2023-06-18T10:27:31.320Z,15.13
2023-06-18T10:29:59.007Z,15.22
2023-06-18T10:32:29.640Z,14.56
2023-06-18T10:34:58.894Z,15.89
2023-06-18T10:37:27.471Z,14.57
2023-06-18T10:39:55.170Z,14.99
2023-06-18T10:42:22.849Z,15.66
2023-06-18T10:44:50.125Z,18.10
2023-06-18T10:47:21.687Z,17.00
2023-06-18T10:50:01.176Z,16.39
2023-06-18T10:52:32.121Z,16.94
2023-06-18T10:55:09.413Z,16.73
2023-06-18T10:57:38.961Z,18.52
2023-06-18T11:00:16.280Z,19.14
2023-06-18T11:02:43.873Z,21.84
2023-06-18T11:05:35.387Z,22.73
2023-06-18T11:08:06.850Z,24.24
2023-06-18T11:10:42.008Z,23.64
2023-06-18T11:13:10.621Z,23.55
2023-06-18T11:15:59.395Z,26.19
2023-06-18T11:18:28.153Z,26.76
2023-06-18T11:20:56.577Z,26.64
2023-06-18T11:23:24.429Z,27.78
2023-06-18T11:25:51.988Z,28.68
2023-06-18T11:28:19.762Z,28.59
2023-06-18T11:30:52.757Z,27.77
2023-06-18T11:33:22.578Z,27.36
2023-06-18T11:35:50.656Z,27.63
2023-06-18T11:38:21.497Z,27.53
2023-06-18T11:40:51.092Z,27.69
2023-06-18T11:43:19.079Z,28.10
2023-06-18T11:45:50.001Z,27.95
2023-06-18T11:48:19.217Z,28.22
2023-06-18T11:50:51.423Z,28.56
2023-06-18T11:53:19.086Z,28.84
2023-06-18T11:55:46.559Z,28.62
2023-06-18T11:58:16.944Z,29.29
2023-06-18T12:00:45.164Z,29.15
2023-06-18T12:03:13.524Z,29.33
2023-06-18T12:05:41.241Z,29.39
2023-06-18T12:08:09.904Z,28.79
2023-06-18T12:10:41.436Z,29.25
2023-06-18T12:13:29.281Z,28.81
2023-06-18T12:16:06.775Z,29.57
2023-06-18T12:18:39.093Z,30.44
2023-06-18T12:21:07.059Z,29.35
2023-06-18T12:23:36.861Z,28.60
2023-06-18T12:26:04.696Z,28.47
2023-06-18T12:28:34.748Z,28.47
2023-06-18T12:31:08.390Z,28.90
2023-06-18T12:33:39.455Z,28.71
2023-06-18T12:36:06.863Z,28.63
2023-06-18T12:38:46.879Z,28.80
2023-06-18T12:41:24.307Z,28.12
2023-06-18T12:43:53.496Z,29.40
2023-06-18T12:46:27.520Z,28.60
2023-06-18T12:48:56.138Z,28.42
2023-06-18T12:51:42.670Z,28.33
2023-06-18T12:54:17.090Z,29.46
2023-06-18T12:57:02.765Z,28.66
2023-06-18T12:59:30.134Z,29.20
2023-06-18T13:01:57.821Z,28.17
2023-06-18T13:04:28.214Z,28.08
2023-06-18T13:06:55.939Z,26.85
2023-06-18T13:09:23.786Z,27.43
2023-06-18T13:11:51.423Z,27.14
2023-06-18T13:14:30.606Z,27.10
2023-06-18T13:17:02.803Z,27.66
2023-06-18T13:19:40.417Z,28.04
2023-06-18T13:22:11.458Z,27.80
2023-06-18T13:24:38.887Z,27.36
2023-06-18T13:27:06.737Z,27.81
2023-06-18T13:29:34.387Z,27.77
2023-06-18T13:32:04.270Z,27.34
2023-06-18T13:34:31.811Z,27.12
2023-06-18T13:36:59.428Z,27.91
2023-06-18T13:39:27.037Z,27.74
2023-06-18T13:41:54.401Z,27.83
2023-06-18T13:44:22.021Z,28.73
2023-06-18T13:46:49.481Z,28.43
2023-06-18T13:49:17.749Z,28.53
2023-06-18T13:51:45.448Z,28.52
2023-06-18T13:54:12.802Z,28.81
2023-06-18T13:56:40.375Z,28.02
2023-06-18T13:59:08.047Z,26.51
2023-06-18T14:01:35.460Z,27.23
2023-06-18T14:04:06.416Z,28.35
2023-06-18T14:06:39.085Z,28.46
2023-06-18T14:09:07.088Z,27.91
2023-06-18T14:11:34.579Z,27.71
2023-06-18T14:14:02.088Z,27.28
2023-06-18T14:16:32.017Z,27.61
2023-06-18T14:18:59.532Z,27.74
2023-06-18T14:21:26.952Z,28.30
2023-06-18T14:23:55.174Z,29.27
2023-06-18T14:26:22.701Z,28.76
2023-06-18T14:28:50.136Z,28.45
2023-06-18T14:31:17.855Z,28.17
2023-06-18T14:33:50.256Z,27.87
2023-06-18T14:36:27.167Z,27.37
2023-06-18T14:38:54.573Z,28.44
2023-06-18T14:41:21.935Z,29.05
2023-06-18T14:43:49.575Z,28.02
2023-06-18T14:46:17.124Z,27.04
2023-06-18T14:48:44.603Z,27.71
2023-06-18T14:51:12.238Z,26.93
2023-06-18T14:53:40.075Z,27.62
2023-06-18T14:56:07.496Z,27.96
2023-06-18T14:58:35.225Z,28.03
2023-06-18T15:01:02.695Z,29.32
2023-06-18T15:03:30.199Z,28.11
2023-06-18T15:05:58.258Z,28.96
2023-06-18T15:08:25.685Z,28.21
2023-06-18T15:10:53.046Z,27.75
2023-06-18T15:13:22.138Z,28.23
2023-06-18T15:15:49.646Z,28.54
2023-06-18T15:18:17.061Z,28.59
2023-06-18T15:20:44.783Z,28.07
2023-06-18T15:23:12.215Z,27.98
2023-06-18T15:25:40.581Z,27.58
2023-06-18T15:28:08.228Z,27.66
2023-06-18T15:30:35.662Z,27.43
2023-06-18T15:33:03.105Z,27.44
2023-06-18T15:35:30.912Z,27.31
2023-06-18T15:38:01.433Z,27.81
2023-06-18T15:40:29.017Z,27.55
2023-06-18T15:42:56.743Z,27.34
2023-06-18T15:45:24.363Z,27.35
2023-06-18T15:47:52.228Z,27.40
2023-06-18T15:50:19.935Z,28.48
2023-06-18T15:52:47.330Z,28.83
2023-06-18T15:55:14.724Z,28.81
2023-06-18T15:57:42.391Z,28.99
2023-06-18T16:00:10.499Z,28.12
2023-06-18T16:02:38.388Z,28.11
2023-06-18T16:05:09.827Z,28.57
2023-06-18T16:07:39.800Z,28.30
2023-06-18T16:10:07.757Z,27.75
2023-06-18T16:12:35.161Z,28.38
2023-06-18T16:15:03.378Z,27.80
2023-06-18T16:17:31.662Z,28.46
2023-06-18T16:19:59.757Z,28.53
2023-06-18T16:22:28.025Z,29.05
2023-06-18T16:24:55.700Z,28.67
2023-06-18T16:27:23.214Z,28.16
2023-06-18T16:29:50.916Z,28.66
2023-06-18T16:32:18.329Z,28.63
2023-06-18T16:34:45.828Z,29.08
2023-06-18T16:37:13.599Z,28.51
2023-06-18T16:39:41.079Z,28.68
2023-06-18T16:42:08.558Z,28.52
2023-06-18T16:44:37.090Z,28.06
2023-06-18T16:47:04.745Z,28.33
2023-06-18T16:49:32.153Z,29.41
2023-06-18T16:52:01.249Z,29.16
2023-06-18T16:54:28.880Z,28.91
2023-06-18T16:56:56.270Z,28.07
2023-06-18T16:59:26.726Z,29.25
2023-06-18T17:01:54.168Z,29.08
2023-06-18T17:04:21.727Z,28.72
2023-06-18T17:06:49.420Z,29.87
2023-06-18T17:09:17.776Z,29.54
2023-06-18T17:11:45.607Z,28.87
2023-06-18T17:14:13.358Z,28.94
2023-06-18T17:16:40.762Z,29.33
2023-06-18T17:19:08.211Z,28.53
2023-06-18T17:21:36.205Z,28.94
2023-06-18T17:24:03.754Z,29.10
2023-06-18T17:26:32.678Z,29.10
2023-06-18T17:29:00.527Z,29.28
2023-06-18T17:31:27.983Z,29.45
2023-06-18T17:33:55.805Z,29.44
2023-06-18T17:36:23.470Z,29.61
2023-06-18T17:38:52.005Z,30.54
2023-06-18T17:41:19.657Z,30.13
2023-06-18T17:43:47.372Z,30.05
2023-06-18T17:46:15.585Z,30.78
2023-06-18T17:48:46.121Z,31.23
2023-06-18T17:51:13.825Z,32.46
2023-06-18T17:53:45.947Z,32.46
2023-06-18T17:56:13.802Z,32.86
2023-06-18T17:58:41.190Z,34.98
2023-06-18T18:01:08.706Z,34.81
2023-06-18T18:03:36.612Z,34.73
2023-06-18T18:06:04.379Z,35.24
2023-06-18T18:08:31.759Z,35.51
2023-06-18T18:10:59.410Z,35.71
2023-06-18T18:13:27.850Z,35.59
2023-06-18T18:15:57.364Z,36.00
2023-06-18T18:18:25.148Z,35.82
2023-06-18T18:20:52.759Z,36.33
2023-06-18T18:23:20.168Z,36.97
2023-06-18T18:25:47.908Z,38.04
2023-06-18T18:28:15.418Z,37.88
2023-06-18T18:30:43.003Z,38.09
2023-06-18T18:33:11.614Z,38.42
2023-06-18T18:35:39.171Z,37.63
2023-06-18T18:38:06.635Z,37.32
2023-06-18T18:40:34.256Z,37.86
2023-06-18T18:43:01.616Z,38.52
2023-06-18T18:45:29.027Z,38.88
2023-06-18T18:47:56.858Z,38.98
2023-06-18T18:50:24.611Z,39.24
2023-06-18T18:52:52.242Z,40.47
2023-06-18T18:55:19.923Z,40.75
2023-06-18T18:57:47.332Z,40.51
2023-06-18T19:00:15.119Z,40.11
2023-06-18T19:02:42.846Z,39.40
2023-06-18T19:05:10.341Z,39.56
2023-06-18T19:07:37.809Z,39.65
2023-06-18T19:10:07.234Z,39.42
2023-06-18T19:12:34.732Z,40.36
2023-06-18T19:15:02.739Z,40.94
2023-06-18T19:17:32.511Z,40.55
2023-06-18T19:19:59.908Z,40.50
2023-06-18T19:22:32.908Z,40.95
2023-06-18T19:25:00.684Z,41.02
2023-06-18T19:27:28.191Z,41.23
2023-06-18T19:29:55.669Z,42.02
2023-06-18T19:32:23.889Z,42.03
2023-06-18T19:34:52.200Z,42.07
2023-06-18T19:37:19.824Z,42.74
2023-06-18T19:39:49.174Z,42.39
2023-06-18T19:42:19.922Z,43.30
2023-06-18T19:44:47.714Z,43.20
2023-06-18T19:47:15.147Z,42.75
2023-06-18T19:49:42.541Z,43.28
2023-06-18T19:52:10.254Z,44.14
2023-06-18T19:54:40.624Z,44.23
2023-06-18T19:57:08.549Z,45.69
2023-06-18T19:59:36.234Z,45.08
2023-06-18T20:02:03.822Z,44.70
2023-06-18T20:04:31.542Z,44.68
2023-06-18T20:06:58.992Z,46.16
2023-06-18T20:09:26.570Z,46.28
2023-06-18T20:11:54.256Z,45.67
2023-06-18T20:14:21.731Z,45.91
2023-06-18T20:16:49.164Z,45.44
2023-06-18T20:19:16.833Z,45.06
2023-06-18T20:21:44.217Z,45.58
2023-06-18T20:24:11.622Z,45.53
2023-06-18T20:26:39.334Z,45.33
2023-06-18T20:29:06.758Z,45.78
2023-06-18T20:31:34.202Z,46.40
2023-06-18T20:34:01.977Z,47.11
2023-06-18T20:36:29.893Z,46.08
2023-06-18T20:38:59.985Z,46.01
2023-06-18T20:41:27.917Z,46.71
2023-06-18T20:43:55.340Z,47.20
2023-06-18T20:46:24.341Z,46.96
2023-06-18T20:48:52.066Z,46.61
2023-06-18T20:51:19.469Z,47.71
2023-06-18T20:53:46.901Z,47.37
2023-06-18T20:56:14.590Z,47.48
2023-06-18T20:58:42.045Z,47.83
2023-06-18T21:01:09.554Z,49.31
2023-06-18T21:03:42.601Z,49.50
2023-06-18T21:06:12.373Z,48.79
2023-06-18T21:08:40.646Z,48.03
2023-06-18T21:11:08.064Z,48.92
2023-06-18T21:13:35.517Z,48.43
2023-06-18T21:16:03.237Z,47.81
2023-06-18T21:18:30.640Z,48.60
2023-06-18T21:20:58.017Z,48.39
2023-06-18T21:23:25.688Z,48.51
2023-06-18T21:25:53.160Z,48.51
2023-06-18T21:28:20.923Z,47.90
2023-06-18T21:30:48.610Z,47.49
2023-06-18T21:33:16.025Z,46.75
2023-06-18T21:38:10.997Z,46.50
2023-06-18T21:40:38.386Z,47.90
2023-06-18T21:43:05.837Z,48.24
2023-06-18T21:45:34.030Z,47.96
2023-06-18T21:48:01.514Z,48.92
2023-06-18T21:50:29.089Z,48.61
2023-06-18T21:52:56.755Z,49.03
2023-06-18T21:55:24.133Z,49.30
2023-06-18T21:57:51.672Z,50.01
2023-06-18T22:00:19.357Z,49.38
2023-06-18T22:02:48.573Z,48.07
2023-06-18T22:05:16.024Z,48.84
2023-06-18T22:07:43.454Z,48.93
2023-06-18T22:10:11.781Z,49.09
2023-06-18T22:12:39.200Z,49.30
2023-06-18T22:15:07.598Z,48.89
2023-06-18T22:17:35.532Z,49.94
2023-06-18T22:20:03.752Z,49.79
2023-06-18T22:22:31.870Z,50.23
2023-06-18T22:24:59.549Z,49.59
2023-06-18T22:27:27.143Z,49.50
2023-06-18T22:29:54.586Z,49.70
2023-06-18T22:32:22.537Z,49.88
2023-06-18T22:34:50.068Z,49.93
2023-06-18T22:37:17.615Z,50.52
2023-06-18T22:39:45.286Z,50.76
2023-06-18T22:42:12.704Z,50.07
2023-06-18T22:44:40.094Z,49.41
2023-06-18T22:47:07.821Z,50.55
2023-06-18T22:49:35.216Z,50.32
2023-06-18T22:52:02.626Z,50.38
2023-06-18T22:54:30.236Z,50.40
2023-06-18T22:56:57.716Z,52.18
2023-06-18T22:59:25.149Z,51.06
2023-06-18T23:01:52.825Z,51.56
2023-06-18T23:04:20.373Z,52.21
2023-06-18T23:06:47.774Z,51.24
2023-06-18T23:09:15.546Z,51.10
2023-06-18T23:11:42.907Z,52.41
2023-06-18T23:14:10.351Z,52.29
2023-06-18T23:16:38.043Z,51.79
2023-06-18T23:19:07.162Z,51.24
2023-06-18T23:21:46.738Z,50.36
2023-06-18T23:24:15.753Z,49.70
2023-06-18T23:26:43.255Z,51.37
2023-06-18T23:29:10.942Z,51.50
2023-06-18T23:31:41.723Z,50.99
2023-06-18T23:34:09.193Z,51.00
2023-06-18T23:36:37.089Z,51.16
2023-06-18T23:39:05.217Z,50.78
2023-06-18T23:41:32.744Z,52.12
2023-06-18T23:44:00.208Z,52.81
2023-06-18T23:46:27.908Z,51.57
2023-06-18T23:48:55.403Z,51.40
2023-06-18T23:51:22.848Z,50.49
2023-06-18T23:53:50.535Z,50.36
2023-06-18T23:56:17.899Z,50.90
2023-06-18T23:58:45.331Z,51.20
